Time;durP1;ratioP1;P1;durP2;ratioP2;P2;SDS_P1;SDS_P2;PMS_P1;PMS_P2;Temp;Humidity;BMP_temperature;BMP_pressure;BME280_temperature;BME280_humidity;BME280_pressure;Samples;Min_cycle;Max_cycle;Signal;HPM_P1;HPM_P2
2021/12/01 00:00:05;;;;;;;8.82;8.25;;;;;;;;;;5030681;28;20053;-76
2021/12/01 00:02:37;;;;;;;8.65;8.10;;;;;;;;;;5022551;28;20029;-75
2021/12/01 00:05:05;;;;;;;8.63;8.02;;;;;;;;;;4987664;28;20041;-75
2021/12/01 00:07:31;;;;;;;8.32;7.82;;;;;;;;;;5000024;28;20049;-77
2021/12/01 00:09:56;;;;;;;8.38;7.88;;;;;;;;;;5045189;28;20041;-75
2021/12/01 00:12:24;;;;;;;8.68;8.10;;;;;;;;;;5021317;28;20033;-76
2021/12/01 00:14:49;;;;;;;8.10;7.60;;;;;;;;;;5024345;28;20649;-76
2021/12/01 00:17:15;;;;;;;8.23;7.72;;;;;;;;;;5032344;28;20050;-77
2021/12/01 00:19:41;;;;;;;8.20;7.60;;;;;;;;;;5026592;28;20120;-77
2021/12/01 00:22:07;;;;;;;8.77;8.18;;;;;;;;;;5021529;28;20045;-76
2021/12/01 00:24:33;;;;;;;8.23;7.70;;;;;;;;;;5031551;28;20067;-78
2021/12/01 00:26:59;;;;;;;8.15;7.65;;;;;;;;;;5023527;28;20034;-76
2021/12/01 00:29:25;;;;;;;8.30;7.80;;;;;;;;;;5040272;28;20099;-77
2021/12/01 00:31:50;;;;;;;8.30;7.70;;;;;;;;;;5033043;28;20041;-76
2021/12/01 00:34:16;;;;;;;8.27;7.80;;;;;;;;;;5032568;28;20079;-76
2021/12/01 00:36:42;;;;;;;8.45;7.95;;;;;;;;;;5025325;28;20091;-76
2021/12/01 00:39:08;;;;;;;8.15;7.65;;;;;;;;;;5030279;28;20505;-77
2021/12/01 00:41:34;;;;;;;8.30;7.70;;;;;;;;;;5037112;28;20128;-76
2021/12/01 00:44:00;;;;;;;8.00;7.60;;;;;;;;;;5031467;28;20038;-77
2021/12/01 00:46:38;;;;;;;7.70;7.20;;;;;;;;;;5035500;28;20069;-77
2021/12/01 00:49:04;;;;;;;8.00;7.50;;;;;;;;;;5026989;28;20060;-75
2021/12/01 00:51:29;;;;;;;8.27;7.68;;;;;;;;;;5030793;28;20037;-76
2021/12/01 00:53:55;;;;;;;8.30;7.75;;;;;;;;;;5037956;28;20162;-76
2021/12/01 00:56:20;;;;;;;7.55;7.15;;;;;;;;;;5035549;28;20041;-76
2021/12/01 00:58:46;;;;;;;8.30;7.80;;;;;;;;;;5035128;28;20030;-77
2021/12/01 01:01:12;;;;;;;8.20;7.60;;;;;;;;;;5036430;28;20113;-76
2021/12/01 01:03:38;;;;;;;8.40;7.90;;;;;;;;;;5022398;28;20113;-76
2021/12/01 01:06:05;;;;;;;8.13;7.63;;;;;;;;;;5021033;28;20044;-77
2021/12/01 01:08:30;;;;;;;8.18;7.68;;;;;;;;;;5051989;28;20060;-76
2021/12/01 01:16:32;;;;;;;8.25;7.68;;;;;;;;;;5036228;28;20073;-77
2021/12/01 01:19:03;;;;;;;8.65;7.90;;;;;;;;;;5037996;28;20065;-76
2021/12/01 01:21:32;;;;;;;7.63;7.22;;;;;;;;;;5037188;28;20037;-77
2021/12/01 01:23:58;;;;;;;7.63;7.22;;;;;;;;;;5031218;28;20049;-77
2021/12/01 01:26:26;;;;;;;8.00;7.50;;;;;;;;;;5036089;28;20033;-76
2021/12/01 01:28:51;;;;;;;7.75;7.35;;;;;;;;;;5033297;28;20048;-77
2021/12/01 01:31:19;;;;;;;8.30;7.80;;;;;;;;;;5022617;28;20037;-77
2021/12/01 01:33:45;;;;;;;8.25;7.75;;;;;;;;;;5013033;28;20629;-76
2021/12/01 01:36:10;;;;;;;8.02;7.53;;;;;;;;;;5029621;28;20080;-77
2021/12/01 01:38:37;;;;;;;8.52;8.02;;;;;;;;;;5036756;28;20048;-77
2021/12/01 01:41:06;;;;;;;8.40;7.80;;;;;;;;;;5038204;28;20045;-77
2021/12/01 01:43:33;;;;;;;8.27;7.78;;;;;;;;;;5034442;28;20040;-77
2021/12/01 01:45:58;;;;;;;8.10;7.60;;;;;;;;;;5035439;28;20088;-77
2021/12/01 01:48:32;;;;;;;8.10;7.60;;;;;;;;;;5032862;28;20223;-77
2021/12/01 01:51:05;;;;;;;8.13;7.35;;;;;;;;;;5036022;28;20147;-77
2021/12/01 01:53:34;;;;;;;8.55;7.95;;;;;;;;;;5060281;28;20037;-77
2021/12/01 01:56:03;;;;;;;8.35;7.68;;;;;;;;;;5054071;28;20043;-76
2021/12/01 01:58:30;;;;;;;8.55;8.05;;;;;;;;;;5036839;28;20044;-78
2021/12/01 02:01:07;;;;;;;8.50;8.00;;;;;;;;;;5035157;28;20232;-76
2021/12/01 02:03:37;;;;;;;8.80;8.20;;;;;;;;;;5036144;28;20040;-77
2021/12/01 02:06:04;;;;;;;8.95;8.25;;;;;;;;;;5024500;28;20492;-77
2021/12/01 02:08:31;;;;;;;8.50;8.00;;;;;;;;;;5031749;28;20036;-76
2021/12/01 02:10:59;;;;;;;9.32;8.52;;;;;;;;;;5036815;28;20958;-77
2021/12/01 02:13:25;;;;;;;9.05;8.40;;;;;;;;;;5021564;28;20642;-77
2021/12/01 02:15:53;;;;;;;8.40;7.90;;;;;;;;;;5033522;28;20052;-77
2021/12/01 02:18:19;;;;;;;8.47;7.97;;;;;;;;;;5025594;28;20033;-77
2021/12/01 02:21:07;;;;;;;8.35;7.88;;;;;;;;;;5035959;28;20296;-77
2021/12/01 02:23:35;;;;;;;8.55;8.05;;;;;;;;;;5037229;28;20150;-77
2021/12/01 02:26:02;;;;;;;8.52;8.02;;;;;;;;;;5036049;28;20045;-77
2021/12/01 02:28:28;;;;;;;8.10;7.60;;;;;;;;;;5034527;28;20089;-77
2021/12/01 02:30:53;;;;;;;7.88;7.47;;;;;;;;;;5033397;28;20053;-77
2021/12/01 02:33:19;;;;;;;8.15;7.68;;;;;;;;;;5033453;28;20038;-76
2021/12/01 02:35:45;;;;;;;8.10;7.60;;;;;;;;;;5030232;28;20029;-76
2021/12/01 02:38:11;;;;;;;8.50;8.00;;;;;;;;;;5018866;28;20038;-77
2021/12/01 02:40:36;;;;;;;8.43;7.90;;;;;;;;;;5028740;28;20112;-77
2021/12/01 02:43:02;;;;;;;9.55;8.95;;;;;;;;;;5034332;28;20038;-77
2021/12/01 02:45:28;;;;;;;9.18;8.57;;;;;;;;;;5034100;28;20036;-76
2021/12/01 02:47:53;;;;;;;9.57;8.98;;;;;;;;;;5032178;28;20403;-76
2021/12/01 02:50:19;;;;;;;9.20;8.70;;;;;;;;;;5035058;28;20037;-76
2021/12/01 02:52:46;;;;;;;9.13;8.63;;;;;;;;;;5031024;28;20052;-76
2021/12/01 02:55:15;;;;;;;9.70;9.10;;;;;;;;;;5010349;28;20064;-76
2021/12/01 02:57:51;;;;;;;9.55;8.85;;;;;;;;;;5034955;28;20168;-77
2021/12/01 03:00:18;;;;;;;9.40;8.90;;;;;;;;;;5032252;28;20033;-77
2021/12/01 03:02:45;;;;;;;9.25;8.75;;;;;;;;;;5035432;28;20057;-76
2021/12/01 03:05:11;;;;;;;9.15;8.65;;;;;;;;;;5035164;28;20090;-77
2021/12/01 03:07:37;;;;;;;9.75;9.05;;;;;;;;;;5046862;28;20029;-77
2021/12/01 03:10:05;;;;;;;9.65;9.05;;;;;;;;;;5022494;28;20725;-77
2021/12/01 03:12:34;;;;;;;9.48;8.77;;;;;;;;;;5034944;28;20159;-77
2021/12/01 03:14:59;;;;;;;9.63;9.13;;;;;;;;;;5036694;28;20076;-77
2021/12/01 03:17:29;;;;;;;9.07;8.57;;;;;;;;;;5027962;28;20099;-77
2021/12/01 03:19:56;;;;;;;9.18;8.68;;;;;;;;;;5022246;28;20041;-77
2021/12/01 03:22:22;;;;;;;9.00;8.50;;;;;;;;;;5031547;28;20440;-77
2021/12/01 03:24:48;;;;;;;9.05;8.55;;;;;;;;;;5035627;28;20068;-77
2021/12/01 03:27:14;;;;;;;9.20;8.65;;;;;;;;;;5034393;28;20033;-77
2021/12/01 03:29:40;;;;;;;9.45;8.95;;;;;;;;;;5024542;28;20060;-76
2021/12/01 03:32:07;;;;;;;9.32;8.82;;;;;;;;;;5032882;28;20642;-76
2021/12/01 03:34:37;;;;;;;9.88;9.10;;;;;;;;;;5030650;28;20037;-76
2021/12/01 03:37:03;;;;;;;9.32;8.82;;;;;;;;;;5032258;28;20045;-76
2021/12/01 03:39:29;;;;;;;9.50;9.00;;;;;;;;;;5022449;28;20528;-77
2021/12/01 03:41:55;;;;;;;9.70;9.10;;;;;;;;;;5034127;28;20068;-77
2021/12/01 03:44:21;;;;;;;9.70;9.05;;;;;;;;;;5031945;28;20038;-76
2021/12/01 03:46:47;;;;;;;9.32;8.82;;;;;;;;;;5019137;28;20026;-76
2021/12/01 03:49:13;;;;;;;9.80;9.20;;;;;;;;;;5034452;28;20024;-77
2021/12/01 03:51:38;;;;;;;9.50;9.00;;;;;;;;;;5024151;28;20097;-77
2021/12/01 03:54:05;;;;;;;9.85;9.27;;;;;;;;;;5029888;28;20036;-77
2021/12/01 03:56:33;;;;;;;9.88;9.18;;;;;;;;;;5034036;28;20047;-77
2021/12/01 03:58:59;;;;;;;9.43;8.50;;;;;;;;;;5032722;28;20033;-77
2021/12/01 04:01:25;;;;;;;9.30;8.80;;;;;;;;;;5030919;28;20049;-77
2021/12/01 04:03:51;;;;;;;9.82;9.20;;;;;;;;;;5030012;28;20685;-76
2021/12/01 04:06:17;;;;;;;9.77;9.27;;;;;;;;;;5034699;28;20222;-77
2021/12/01 04:08:43;;;;;;;9.70;9.18;;;;;;;;;;5025820;28;20044;-76
2021/12/01 04:11:09;;;;;;;9.40;8.90;;;;;;;;;;5020099;28;20033;-76
2021/12/01 04:13:34;;;;;;;10.02;9.43;;;;;;;;;;5032132;28;20064;-75
2021/12/01 04:16:00;;;;;;;10.20;9.60;;;;;;;;;;5037241;28;20030;-77
2021/12/01 04:18:26;;;;;;;9.82;9.23;;;;;;;;;;5046696;28;20048;-76
2021/12/01 04:20:53;;;;;;;9.73;9.02;;;;;;;;;;5035459;28;20050;-76
2021/12/01 04:23:19;;;;;;;9.90;9.30;;;;;;;;;;5034095;28;20497;-76
2021/12/01 04:25:44;;;;;;;10.15;9.55;;;;;;;;;;5030104;28;20095;-76
2021/12/01 04:28:11;;;;;;;9.98;9.43;;;;;;;;;;5028852;28;20042;-76
2021/12/01 04:30:37;;;;;;;9.80;9.30;;;;;;;;;;5026864;28;20125;-77
2021/12/01 04:33:04;;;;;;;10.40;9.70;;;;;;;;;;5030521;28;20041;-76
2021/12/01 04:35:30;;;;;;;10.10;9.50;;;;;;;;;;5014983;28;20034;-77
2021/12/01 04:37:57;;;;;;;10.05;9.45;;;;;;;;;;5020903;28;20493;-76
2021/12/01 04:40:23;;;;;;;9.75;9.20;;;;;;;;;;5029514;28;20190;-77
2021/12/01 04:42:49;;;;;;;10.27;9.48;;;;;;;;;;5026594;28;20034;-76
2021/12/01 04:45:17;;;;;;;9.65;9.05;;;;;;;;;;5041955;28;20113;-76
2021/12/01 04:47:52;;;;;;;10.15;9.25;;;;;;;;;;5038886;28;20470;-76
2021/12/01 04:50:21;;;;;;;9.60;9.00;;;;;;;;;;5032917;28;20021;-77
2021/12/01 04:52:47;;;;;;;9.70;9.10;;;;;;;;;;5034348;28;20480;-76
2021/12/01 04:55:13;;;;;;;9.75;9.25;;;;;;;;;;5048729;28;20428;-76
2021/12/01 04:57:41;;;;;;;9.35;8.80;;;;;;;;;;5032422;28;20116;-76
2021/12/01 05:00:10;;;;;;;9.40;8.90;;;;;;;;;;5029377;28;20042;-76
2021/12/01 05:02:36;;;;;;;10.02;9.38;;;;;;;;;;5026840;28;20038;-76
2021/12/01 05:05:02;;;;;;;10.10;9.50;;;;;;;;;;5035383;28;20051;-76
2021/12/01 05:07:28;;;;;;;10.05;9.45;;;;;;;;;;5035243;28;20037;-77
2021/12/01 05:09:56;;;;;;;9.77;9.07;;;;;;;;;;5028471;28;20040;-76
2021/12/01 05:12:22;;;;;;;9.35;8.73;;;;;;;;;;5030366;28;20085;-76
2021/12/01 05:14:47;;;;;;;9.40;8.82;;;;;;;;;;5025354;28;20584;-76
2021/12/01 05:17:13;;;;;;;9.02;8.52;;;;;;;;;;5037207;28;20067;-78
2021/12/01 05:19:39;;;;;;;10.00;9.20;;;;;;;;;;5036841;28;20443;-76
2021/12/01 05:22:05;;;;;;;9.27;8.57;;;;;;;;;;5033286;28;20029;-77
2021/12/01 05:24:32;;;;;;;8.73;8.23;;;;;;;;;;5029262;28;20037;-77
2021/12/01 05:26:57;;;;;;;8.90;8.40;;;;;;;;;;5045583;28;20051;-77
2021/12/01 05:29:24;;;;;;;9.65;9.10;;;;;;;;;;5030429;28;20109;-77
2021/12/01 05:31:54;;;;;;;9.40;8.90;;;;;;;;;;5028791;28;20069;-77
2021/12/01 05:34:20;;;;;;;9.85;9.15;;;;;;;;;;5010467;28;20048;-77
2021/12/01 05:36:45;;;;;;;9.55;8.95;;;;;;;;;;4994172;28;20042;-77
2021/12/01 05:39:11;;;;;;;9.20;8.60;;;;;;;;;;5011835;28;20382;-77
2021/12/01 05:41:37;;;;;;;9.10;8.52;;;;;;;;;;5021644;28;20116;-78
2021/12/01 05:44:02;;;;;;;8.98;8.48;;;;;;;;;;5026402;28;20091;-75
2021/12/01 05:46:28;;;;;;;9.27;8.68;;;;;;;;;;5010883;28;20092;-77
2021/12/01 05:48:54;;;;;;;9.15;8.65;;;;;;;;;;5010923;28;20404;-76
2021/12/01 05:51:20;;;;;;;9.75;9.10;;;;;;;;;;5010030;28;20026;-77
2021/12/01 05:53:48;;;;;;;8.85;8.35;;;;;;;;;;5024293;28;20160;-78
2021/12/01 05:56:14;;;;;;;8.80;8.30;;;;;;;;;;5012701;28;20143;-76
2021/12/01 05:58:39;;;;;;;9.48;8.77;;;;;;;;;;5025065;28;20105;-76
2021/12/01 06:01:05;;;;;;;9.23;8.73;;;;;;;;;;5027357;28;20091;-76
2021/12/01 06:03:31;;;;;;;9.07;8.45;;;;;;;;;;5011144;28;20026;-75
2021/12/01 06:05:56;;;;;;;8.88;8.38;;;;;;;;;;5015371;28;20045;-77
2021/12/01 06:08:22;;;;;;;9.18;8.50;;;;;;;;;;5019415;28;20067;-76
2021/12/01 06:10:48;;;;;;;9.13;8.48;;;;;;;;;;5027578;28;20421;-76
2021/12/01 06:13:17;;;;;;;8.75;8.25;;;;;;;;;;5027154;28;20049;-75
2021/12/01 06:15:44;;;;;;;8.53;8.03;;;;;;;;;;5023843;28;20029;-77
2021/12/01 06:18:11;;;;;;;8.65;8.15;;;;;;;;;;5002821;28;20293;-76
2021/12/01 06:20:37;;;;;;;8.98;8.48;;;;;;;;;;5020900;28;20033;-76
2021/12/01 06:23:02;;;;;;;8.85;8.25;;;;;;;;;;5021065;28;20038;-77
2021/12/01 06:25:28;;;;;;;8.88;8.27;;;;;;;;;;4987446;28;20095;-76
2021/12/01 06:27:55;;;;;;;9.48;8.88;;;;;;;;;;5028542;28;20032;-76
2021/12/01 06:30:22;;;;;;;9.30;8.70;;;;;;;;;;5030689;28;20060;-77
2021/12/01 06:32:51;;;;;;;9.00;8.40;;;;;;;;;;5031311;28;20049;-75
2021/12/01 06:35:18;;;;;;;9.07;8.57;;;;;;;;;;5024565;28;20505;-76
2021/12/01 06:37:45;;;;;;;9.00;8.50;;;;;;;;;;5028905;28;20060;-75
2021/12/01 06:40:13;;;;;;;8.95;8.45;;;;;;;;;;5039243;28;20030;-75
2021/12/01 06:42:39;;;;;;;8.57;8.07;;;;;;;;;;4996522;28;20038;-77
2021/12/01 06:45:07;;;;;;;9.75;9.15;;;;;;;;;;5029742;28;20112;-75
2021/12/01 06:47:33;;;;;;;9.80;9.20;;;;;;;;;;5029526;28;20059;-76
2021/12/01 06:49:59;;;;;;;9.60;8.90;;;;;;;;;;5032452;28;20030;-75
2021/12/01 06:52:29;;;;;;;9.05;8.55;;;;;;;;;;5030169;28;20046;-75
2021/12/01 06:54:57;;;;;;;8.80;8.30;;;;;;;;;;5012521;28;20096;-75
2021/12/01 06:57:23;;;;;;;9.10;8.50;;;;;;;;;;5028027;28;20048;-74
2021/12/01 06:59:49;;;;;;;8.38;7.97;;;;;;;;;;5005357;28;20121;-75
2021/12/01 07:02:15;;;;;;;8.98;8.43;;;;;;;;;;5026059;28;20617;-76
2021/12/01 07:04:41;;;;;;;9.35;8.73;;;;;;;;;;5021561;28;20053;-77
2021/12/01 07:07:07;;;;;;;8.90;8.30;;;;;;;;;;5007599;28;20366;-77
2021/12/01 07:09:33;;;;;;;9.10;8.50;;;;;;;;;;5008884;28;20038;-77
2021/12/01 07:11:58;;;;;;;9.10;8.60;;;;;;;;;;5007759;28;20044;-76
2021/12/01 07:14:24;;;;;;;8.60;8.10;;;;;;;;;;5027003;28;20029;-76
2021/12/01 07:16:50;;;;;;;8.32;7.82;;;;;;;;;;5011436;28;20050;-76
2021/12/01 07:19:16;;;;;;;8.52;8.07;;;;;;;;;;5044550;28;20037;-75
2021/12/01 07:21:41;;;;;;;8.93;8.43;;;;;;;;;;5011465;28;20056;-76
2021/12/01 07:24:07;;;;;;;8.25;7.68;;;;;;;;;;5023111;28;20064;-75
2021/12/01 07:26:33;;;;;;;8.50;7.93;;;;;;;;;;5022910;28;20115;-77
2021/12/01 07:28:59;;;;;;;8.45;7.95;;;;;;;;;;5012228;28;20037;-75
2021/12/01 07:31:25;;;;;;;8.63;8.13;;;;;;;;;;5020665;28;20149;-76
2021/12/01 07:33:51;;;;;;;8.25;7.70;;;;;;;;;;5020365;28;20048;-76
2021/12/01 07:36:16;;;;;;;8.48;7.97;;;;;;;;;;5008928;28;20034;-75
2021/12/01 07:38:43;;;;;;;8.55;8.05;;;;;;;;;;5008999;28;20489;-76
2021/12/01 07:41:08;;;;;;;8.18;7.68;;;;;;;;;;5022393;28;20033;-75
2021/12/01 07:43:35;;;;;;;9.13;8.63;;;;;;;;;;5027353;28;20045;-74
2021/12/01 07:46:01;;;;;;;8.93;8.32;;;;;;;;;;5023478;28;20040;-76
2021/12/01 07:48:28;;;;;;;9.05;8.55;;;;;;;;;;5011864;28;20037;-75
2021/12/01 07:50:55;;;;;;;9.50;8.60;;;;;;;;;;5029117;28;20044;-75
2021/12/01 07:53:21;;;;;;;9.27;8.57;;;;;;;;;;5028975;28;20029;-74
2021/12/01 07:55:47;;;;;;;8.77;8.27;;;;;;;;;;5029644;28;20393;-76
2021/12/01 07:58:12;;;;;;;9.25;8.68;;;;;;;;;;5028618;28;20097;-73
2021/12/01 08:00:38;;;;;;;8.77;8.27;;;;;;;;;;5033346;28;20096;-76
2021/12/01 08:03:04;;;;;;;9.20;8.70;;;;;;;;;;5027548;28;20132;-75
2021/12/01 08:05:30;;;;;;;9.02;8.40;;;;;;;;;;5027837;28;20345;-74
2021/12/01 08:07:56;;;;;;;8.98;8.43;;;;;;;;;;5026460;28;20053;-75
2021/12/01 08:10:21;;;;;;;8.73;8.23;;;;;;;;;;4993916;28;20030;-76
2021/12/01 08:12:47;;;;;;;8.32;7.93;;;;;;;;;;5010105;28;20673;-76
2021/12/01 08:15:13;;;;;;;8.57;7.97;;;;;;;;;;5019289;28;20483;-75
2021/12/01 08:17:39;;;;;;;9.00;8.50;;;;;;;;;;5026577;28;20654;-75
2021/12/01 08:20:05;;;;;;;8.30;7.80;;;;;;;;;;5027766;28;20505;-74
2021/12/01 08:22:31;;;;;;;9.30;8.70;;;;;;;;;;5012291;28;20079;-77
2021/12/01 08:24:59;;;;;;;9.10;8.60;;;;;;;;;;5025887;28;20057;-75
2021/12/01 08:27:26;;;;;;;8.55;8.07;;;;;;;;;;5005724;28;20049;-75
2021/12/01 08:29:51;;;;;;;8.82;8.18;;;;;;;;;;5002088;28;20061;-74
2021/12/01 08:32:17;;;;;;;8.77;8.27;;;;;;;;;;5025853;28;20033;-75
2021/12/01 08:34:47;;;;;;;9.25;8.70;;;;;;;;;;5025719;28;20100;-76
2021/12/01 08:37:14;;;;;;;8.90;8.40;;;;;;;;;;4995019;28;20084;-77
2021/12/01 08:39:40;;;;;;;8.68;8.18;;;;;;;;;;5006664;28;20068;-75
2021/12/01 08:42:06;;;;;;;9.10;8.60;;;;;;;;;;5024000;28;20030;-75
2021/12/01 08:44:31;;;;;;;8.02;7.53;;;;;;;;;;5042233;28;20041;-75
2021/12/01 08:47:00;;;;;;;8.57;8.07;;;;;;;;;;5013367;28;20116;-76
2021/12/01 08:49:26;;;;;;;8.93;8.43;;;;;;;;;;5021384;28;20041;-75
2021/12/01 08:51:52;;;;;;;8.07;7.65;;;;;;;;;;5025549;28;20098;-75
2021/12/01 08:54:18;;;;;;;8.85;8.25;;;;;;;;;;5009774;28;20473;-75
2021/12/01 08:56:44;;;;;;;8.15;7.65;;;;;;;;;;5013018;28;20040;-76
2021/12/01 08:59:10;;;;;;;8.25;7.85;;;;;;;;;;5018530;28;20661;-76
2021/12/01 09:01:35;;;;;;;8.63;8.05;;;;;;;;;;5026304;28;20038;-75
2021/12/01 09:04:02;;;;;;;8.90;8.40;;;;;;;;;;5027258;28;20444;-76
2021/12/01 09:06:28;;;;;;;8.75;8.25;;;;;;;;;;5026890;28;20645;-76
2021/12/01 09:08:53;;;;;;;9.27;8.60;;;;;;;;;;5024085;28;20030;-75
2021/12/01 09:11:19;;;;;;;8.40;7.90;;;;;;;;;;5040552;28;20041;-75
2021/12/01 09:13:45;;;;;;;9.07;8.57;;;;;;;;;;5023644;28;20099;-76
2021/12/01 09:16:10;;;;;;;9.50;8.90;;;;;;;;;;5010915;28;20041;-76
2021/12/01 09:18:37;;;;;;;9.60;8.85;;;;;;;;;;5024246;28;20108;-75
2021/12/01 09:21:04;;;;;;;9.27;8.77;;;;;;;;;;5023143;28;20045;-75
2021/12/01 09:23:30;;;;;;;9.20;8.70;;;;;;;;;;5024356;28;20042;-75
2021/12/01 09:25:56;;;;;;;9.60;9.00;;;;;;;;;;5007434;28;20198;-76
2021/12/01 09:28:24;;;;;;;8.50;8.00;;;;;;;;;;5036369;28;20100;-76
2021/12/01 09:30:51;;;;;;;9.40;8.90;;;;;;;;;;5028420;28;20029;-75
2021/12/01 09:33:16;;;;;;;9.70;9.20;;;;;;;;;;5030374;28;20029;-74
2021/12/01 09:35:43;;;;;;;9.35;8.85;;;;;;;;;;5026824;28;20037;-76
2021/12/01 09:38:13;;;;;;;9.52;8.93;;;;;;;;;;5024360;28;20099;-75
2021/12/01 09:40:42;;;;;;;9.48;8.98;;;;;;;;;;5022195;28;20063;-75
2021/12/01 09:43:08;;;;;;;;;;;;;;;;;;5026167;28;20087;-75
2021/12/01 09:45:33;;;;;;;9.55;9.05;;;;;;;;;;5030205;28;20012;-76
2021/12/01 09:47:59;;;;;;;9.30;8.80;;;;;;;;;;4992689;28;20115;-76
2021/12/01 09:50:25;;;;;;;8.70;8.30;;;;;;;;;;5040207;28;20032;-76
2021/12/01 09:52:50;;;;;;;9.38;8.77;;;;;;;;;;5011242;28;20746;-75
2021/12/01 09:55:17;;;;;;;9.80;9.30;;;;;;;;;;5001025;28;20041;-76
2021/12/01 09:58:04;;;;;;;9.57;9.07;;;;;;;;;;5023985;28;20033;-75
2021/12/01 10:00:31;;;;;;;9.65;9.15;;;;;;;;;;5011707;28;20033;-77
2021/12/01 10:02:57;;;;;;;9.45;8.95;;;;;;;;;;5024771;28;20124;-74
2021/12/01 10:05:49;;;;;;;9.70;9.10;;;;;;;;;;5025565;28;20033;-75
2021/12/01 10:08:30;;;;;;;9.48;8.98;;;;;;;;;;5039686;28;20481;-75
2021/12/01 10:10:57;;;;;;;9.30;8.80;;;;;;;;;;5021801;28;20041;-75
2021/12/01 10:13:29;;;;;;;8.90;8.40;;;;;;;;;;5018195;28;20133;-75
2021/12/01 10:15:56;;;;;;;8.88;8.38;;;;;;;;;;5022652;28;20037;-76
2021/12/01 10:18:22;;;;;;;9.80;9.13;;;;;;;;;;5024116;28;20523;-76
2021/12/01 10:21:09;;;;;;;9.95;9.32;;;;;;;;;;5012297;28;20033;-76
2021/12/01 10:23:36;;;;;;;9.73;9.23;;;;;;;;;;5039387;28;20045;-75
2021/12/01 10:26:07;;;;;;;9.30;8.80;;;;;;;;;;5026306;28;20044;-76
2021/12/01 10:28:36;;;;;;;10.23;9.52;;;;;;;;;;5037540;28;20042;-75
2021/12/01 10:31:02;;;;;;;9.35;8.85;;;;;;;;;;5024821;28;20040;-74
2021/12/01 10:33:29;;;;;;;9.48;8.98;;;;;;;;;;5038289;28;20056;-74
2021/12/01 10:35:57;;;;;;;9.48;8.98;;;;;;;;;;5028397;28;20033;-76
2021/12/01 10:38:29;;;;;;;9.60;9.00;;;;;;;;;;5024851;28;20025;-75
2021/12/01 10:41:11;;;;;;;9.32;8.82;;;;;;;;;;5024597;28;20580;-76
2021/12/01 10:43:48;;;;;;;9.52;9.02;;;;;;;;;;5026265;28;20033;-75
2021/12/01 10:46:18;;;;;;;9.15;8.52;;;;;;;;;;5016780;28;20091;-76
2021/12/01 10:48:59;;;;;;;9.20;8.70;;;;;;;;;;5029607;28;20041;-76
2021/12/01 10:51:34;;;;;;;10.40;9.65;;;;;;;;;;5026075;28;20133;-75
2021/12/01 10:54:00;;;;;;;10.38;9.77;;;;;;;;;;5031221;28;20112;-75
2021/12/01 10:56:26;;;;;;;11.05;10.18;;;;;;;;;;5016578;28;20077;-75
2021/12/01 10:58:52;;;;;;;10.10;9.40;;;;;;;;;;5016048;28;20037;-76
2021/12/01 11:01:20;;;;;;;9.85;9.25;;;;;;;;;;5038258;28;20034;-73
2021/12/01 11:03:46;;;;;;;9.40;8.90;;;;;;;;;;5045259;28;20093;-74
2021/12/01 11:06:21;;;;;;;10.15;9.60;;;;;;;;;;5037793;28;20083;-74
2021/12/01 11:08:58;;;;;;;10.32;9.73;;;;;;;;;;5036247;28;20055;-74
2021/12/01 11:11:36;;;;;;;10.10;9.50;;;;;;;;;;5021072;28;20033;-74
2021/12/01 11:14:14;;;;;;;10.00;9.40;;;;;;;;;;5019753;28;20463;-77
2021/12/01 11:16:42;;;;;;;10.15;9.55;;;;;;;;;;5034898;28;20049;-75
2021/12/01 11:19:08;;;;;;;10.00;9.50;;;;;;;;;;5025662;28;20040;-75
2021/12/01 11:21:35;;;;;;;9.38;8.88;;;;;;;;;;5019928;28;20034;-75
2021/12/01 11:24:08;;;;;;;9.85;9.15;;;;;;;;;;5024563;28;20046;-76
2021/12/01 11:26:36;;;;;;;9.98;9.48;;;;;;;;;;5024409;28;20094;-76
2021/12/01 11:29:09;;;;;;;8.57;8.07;;;;;;;;;;5026019;28;20060;-71
2021/12/01 11:31:46;;;;;;;9.95;9.18;;;;;;;;;;5024858;28;20034;-76
2021/12/01 11:34:17;;;;;;;8.95;8.40;;;;;;;;;;5031078;28;20041;-76
2021/12/01 11:36:49;;;;;;;9.45;8.77;;;;;;;;;;5027860;28;20116;-77
2021/12/01 11:39:23;;;;;;;10.13;9.30;;;;;;;;;;5016310;28;20117;-76
2021/12/01 11:41:50;;;;;;;9.60;9.10;;;;;;;;;;5037049;28;20044;-77
2021/12/01 11:44:18;;;;;;;9.73;9.23;;;;;;;;;;5025276;28;20746;-76
2021/12/01 11:46:44;;;;;;;10.00;9.40;;;;;;;;;;5014611;28;20025;-76
2021/12/01 11:49:12;;;;;;;9.57;8.98;;;;;;;;;;5029725;28;20030;-77
2021/12/01 11:51:58;;;;;;;10.13;9.52;;;;;;;;;;5022486;28;20033;-77
2021/12/01 11:54:25;;;;;;;9.95;9.35;;;;;;;;;;5026080;28;20033;-77
2021/12/01 11:57:01;;;;;;;10.52;9.93;;;;;;;;;;5027394;28;20037;-76
2021/12/01 11:59:28;;;;;;;11.00;10.40;;;;;;;;;;5020315;28;20037;-75
2021/12/01 12:01:57;;;;;;;10.10;9.50;;;;;;;;;;5027704;28;20073;-75
2021/12/01 12:04:28;;;;;;;10.10;9.50;;;;;;;;;;5026037;28;20041;-75
2021/12/01 12:07:10;;;;;;;10.88;10.18;;;;;;;;;;5014421;28;20041;-75
2021/12/01 12:09:37;;;;;;;10.40;9.80;;;;;;;;;;5018713;28;20097;-76
2021/12/01 12:12:17;;;;;;;10.55;9.95;;;;;;;;;;5026817;28;20029;-75
2021/12/01 12:14:46;;;;;;;10.65;10.05;;;;;;;;;;5019023;28;20044;-76
2021/12/01 12:17:19;;;;;;;10.77;10.18;;;;;;;;;;5024881;28;20111;-75
2021/12/01 12:20:24;;;;;;;10.45;9.85;;;;;;;;;;5024750;28;20121;-74
2021/12/01 12:22:50;;;;;;;10.60;10.00;;;;;;;;;;5016377;28;20064;-75
2021/12/01 12:25:37;;;;;;;10.05;9.55;;;;;;;;;;4988522;28;20442;-74
2021/12/01 12:28:23;;;;;;;10.70;10.10;;;;;;;;;;5024370;28;20086;-75
2021/12/01 12:30:49;;;;;;;11.02;10.32;;;;;;;;;;5022954;28;20484;-77
2021/12/01 12:33:31;;;;;;;11.25;10.55;;;;;;;;;;4997371;28;20049;-77
2021/12/01 12:36:08;;;;;;;11.20;10.52;;;;;;;;;;5029162;28;20547;-76
2021/12/01 12:38:35;;;;;;;12.23;11.60;;;;;;;;;;4999263;28;20570;-76
2021/12/01 12:41:02;;;;;;;11.13;10.52;;;;;;;;;;5017272;28;20076;-74
2021/12/01 12:43:29;;;;;;;11.43;10.80;;;;;;;;;;5023328;28;20029;-74
2021/12/01 12:46:06;;;;;;;11.27;10.68;;;;;;;;;;5012847;28;20073;-75
2021/12/01 12:48:38;;;;;;;11.80;11.20;;;;;;;;;;5016987;28;20041;-75
2021/12/01 12:51:16;;;;;;;11.77;11.07;;;;;;;;;;5026289;28;20032;-75
2021/12/01 12:54:07;;;;;;;11.48;10.85;;;;;;;;;;5010995;28;20037;-76
2021/12/01 12:56:38;;;;;;;12.25;11.55;;;;;;;;;;5022060;28;20507;-74
2021/12/01 12:59:28;;;;;;;12.55;11.85;;;;;;;;;;5022942;28;20041;-75
2021/12/01 13:02:09;;;;;;;11.25;10.65;;;;;;;;;;5045706;28;20033;-75
2021/12/01 13:05:02;;;;;;;11.20;10.60;;;;;;;;;;4995633;28;20049;-75
2021/12/01 13:07:35;;;;;;;12.32;11.63;;;;;;;;;;5019193;28;20028;-76
2021/12/01 13:10:21;;;;;;;11.80;11.10;;;;;;;;;;5032132;28;20034;-75
2021/12/01 13:13:10;;;;;;;10.95;10.35;;;;;;;;;;5029093;28;20140;-76
2021/12/01 13:15:44;;;;;;;12.07;11.38;;;;;;;;;;5008102;28;20141;-76
2021/12/01 13:18:16;;;;;;;12.55;11.60;;;;;;;;;;4991382;28;20705;-76
2021/12/01 13:20:53;;;;;;;11.55;10.85;;;;;;;;;;5013458;28;20034;-75
2021/12/01 13:23:37;;;;;;;11.75;11.05;;;;;;;;;;5031125;28;20449;-74
2021/12/01 13:26:04;;;;;;;11.38;10.77;;;;;;;;;;5025921;28;20049;-76
2021/12/01 13:29:01;;;;;;;11.20;10.60;;;;;;;;;;5023664;28;20734;-77
2021/12/01 13:31:32;;;;;;;11.00;10.30;;;;;;;;;;5041512;28;20100;-75
2021/12/01 13:34:28;;;;;;;10.65;10.05;;;;;;;;;;5020682;28;20029;-75
2021/12/01 13:36:57;;;;;;;10.93;10.32;;;;;;;;;;5039284;28;20042;-76
2021/12/01 13:39:25;;;;;;;10.73;10.13;;;;;;;;;;4998521;28;20465;-75
2021/12/01 13:42:06;;;;;;;11.10;10.40;;;;;;;;;;5011867;28;20067;-75
2021/12/01 13:44:36;;;;;;;11.25;10.55;;;;;;;;;;5043811;28;20033;-76
2021/12/01 13:47:11;;;;;;;11.35;10.65;;;;;;;;;;5016793;28;20723;-76
2021/12/01 13:49:38;;;;;;;10.93;10.32;;;;;;;;;;5024857;28;20128;-76
2021/12/01 13:52:05;;;;;;;10.70;10.10;;;;;;;;;;5022862;28;20034;-75
2021/12/01 13:54:30;;;;;;;10.00;9.32;;;;;;;;;;5020864;28;20041;-76
2021/12/01 13:57:11;;;;;;;10.35;9.75;;;;;;;;;;5009624;28;20277;-75
2021/12/01 13:59:42;;;;;;;9.82;9.32;;;;;;;;;;5022877;28;20045;-75
2021/12/01 14:02:09;;;;;;;10.43;9.63;;;;;;;;;;5005012;28;20060;-76
2021/12/01 14:04:35;;;;;;;9.80;9.30;;;;;;;;;;5008323;28;20117;-76
2021/12/01 14:07:02;;;;;;;9.82;9.23;;;;;;;;;;5025046;28;20091;-76
2021/12/01 14:09:40;;;;;;;10.13;9.55;;;;;;;;;;5024462;28;20064;-76
2021/12/01 14:12:16;;;;;;;10.82;10.23;;;;;;;;;;5026887;28;20029;-76
2021/12/01 14:14:42;;;;;;;10.00;9.50;;;;;;;;;;5013664;28;20111;-76
2021/12/01 14:17:08;;;;;;;10.02;9.43;;;;;;;;;;5009457;28;20550;-77
2021/12/01 14:19:34;;;;;;;10.23;9.73;;;;;;;;;;5027374;28;20033;-77
2021/12/01 14:22:01;;;;;;;10.65;10.05;;;;;;;;;;5026726;28;20140;-76
2021/12/01 14:24:33;;;;;;;10.10;9.50;;;;;;;;;;5011208;28;20193;-76
2021/12/01 14:27:05;;;;;;;10.55;9.95;;;;;;;;;;4992325;28;20033;-74
2021/12/01 14:29:37;;;;;;;10.00;9.48;;;;;;;;;;5011944;28;20448;-79
2021/12/01 14:32:11;;;;;;;10.45;9.85;;;;;;;;;;4993804;28;20045;-77
2021/12/01 14:34:40;;;;;;;10.23;9.63;;;;;;;;;;5020924;28;20034;-77
2021/12/01 14:37:14;;;;;;;10.80;10.20;;;;;;;;;;5011817;28;20049;-77
2021/12/01 14:39:41;;;;;;;10.35;9.73;;;;;;;;;;5036882;28;20104;-77
2021/12/01 14:42:07;;;;;;;10.15;9.45;;;;;;;;;;5004490;28;20052;-75
2021/12/01 14:44:36;;;;;;;10.38;9.77;;;;;;;;;;5026014;28;20440;-77
2021/12/01 14:47:05;;;;;;;10.48;9.88;;;;;;;;;;5020745;28;20030;-76
2021/12/01 14:49:51;;;;;;;10.32;9.73;;;;;;;;;;5012724;28;20180;-76
2021/12/01 14:52:34;;;;;;;10.02;9.43;;;;;;;;;;5009403;28;20045;-76